Time;durP1;ratioP1;P1;durP2;ratioP2;P2;SDS_P1;SDS_P2;PMS_P1;PMS_P2;Temp;Humidity;BMP_temperature;BMP_pressure;BME280_temperature;BME280_humidity;BME280_pressure;Samples;Min_cycle;Max_cycle;Signal;HPM_P1;HPM_P2
2021/01/08 15:08:48;;;;;;;16.15;11.07;;;1.50;93.30;;;;;;5030541;28;20405;-93
2021/01/08 15:11:14;;;;;;;19.20;13.88;;;1.50;93.60;;;;;;5043080;28;20113;-94
2021/01/08 15:13:40;;;;;;;27.15;16.10;;;1.60;94.10;;;;;;5027881;28;20492;-93
2021/01/08 15:16:06;;;;;;;28.92;17.48;;;1.70;94.20;;;;;;5030214;28;20053;-93
2021/01/08 15:18:32;;;;;;;23.88;15.05;;;1.70;94.50;;;;;;5030288;28;20025;-93
2021/01/08 15:21:06;;;;;;;30.83;19.70;;;1.80;94.70;;;;;;5030414;28;20030;-92
2021/01/08 15:23:35;;;;;;;31.77;19.60;;;1.90;94.90;;;;;;5024080;28;20089;-92
2021/01/08 15:26:04;;;;;;;30.90;18.90;;;2.00;94.90;;;;;;5009424;28;20030;-92
2021/01/08 15:28:34;;;;;;;33.30;21.50;;;2.10;95.00;;;;;;5021514;28;20505;-92
2021/01/08 15:31:00;;;;;;;29.40;18.23;;;2.10;94.60;;;;;;5029428;28;20034;-94
2021/01/08 15:33:28;;;;;;;27.23;18.80;;;2.20;94.80;;;;;;5029739;28;20029;-94
2021/01/08 15:36:01;;;;;;;24.15;16.95;;;2.20;94.90;;;;;;5029417;28;20049;-93
2021/01/08 15:38:31;;;;;;;;;;;2.20;94.80;;;;;;5031428;28;20022;-93
2021/01/08 15:40:57;;;;;;;20.23;14.93;;;2.30;93.90;;;;;;5030944;28;20312;-90
2021/01/08 15:43:23;;;;;;;20.63;14.32;;;2.30;94.80;;;;;;5036807;28;20037;-91
2021/01/08 15:45:52;;;;;;;23.77;16.73;;;2.30;94.90;;;;;;5028962;28;20049;-92
2021/01/08 15:48:18;;;;;;;17.33;13.18;;;2.30;94.50;;;;;;5029024;28;20056;-93
2021/01/08 15:50:47;;;;;;;15.43;12.00;;;2.40;94.40;;;;;;5029412;28;20053;-92
2021/01/08 15:53:13;;;;;;;16.90;12.70;;;2.40;94.60;;;;;;5029930;28;20029;-94
2021/01/08 15:55:41;;;;;;;17.55;13.07;;;2.40;94.70;;;;;;5030030;28;20022;-94
2021/01/08 15:58:07;;;;;;;15.38;11.85;;;2.40;94.50;;;;;;5035244;28;20032;-92
2021/01/08 16:00:43;;;;;;;14.18;11.20;;;2.40;94.20;;;;;;5026984;28;20504;-92
2021/01/08 16:03:10;;;;;;;18.83;12.93;;;2.40;94.20;;;;;;5027586;28;20109;-91
2021/01/08 16:05:38;;;;;;;16.15;12.23;;;2.40;94.30;;;;;;5017708;28;20071;-91
2021/01/08 16:08:04;;;;;;;15.77;12.18;;;2.40;94.20;;;;;;5020849;28;20494;-95
2021/01/08 16:10:30;;;;;;;17.90;12.90;;;2.40;94.10;;;;;;5021101;28;20041;-93
2021/01/08 16:12:57;;;;;;;14.43;11.48;;;2.40;93.90;;;;;;5020560;28;20072;-93
2021/01/08 16:15:23;;;;;;;18.85;13.57;;;2.50;94.00;;;;;;5042019;28;20390;-91
2021/01/08 16:17:53;;;;;;;15.63;12.10;;;2.40;93.90;;;;;;5028496;28;20044;-90
2021/01/08 16:20:19;;;;;;;16.98;12.23;;;2.50;93.90;;;;;;5024558;28;20048;-92
2021/01/08 16:22:46;;;;;;;16.90;11.63;;;2.40;93.90;;;;;;5012000;28;20030;-92
2021/01/08 16:25:13;;;;;;;14.20;10.77;;;2.50;93.90;;;;;;5017624;28;20027;-91
2021/01/08 16:27:39;;;;;;;14.45;10.32;;;2.40;94.00;;;;;;5004084;28;20113;-91
2021/01/08 16:30:13;;;;;;;16.33;11.63;;;2.50;94.20;;;;;;5008782;28;20053;-92
2021/01/08 16:32:38;;;;;;;17.67;12.20;;;2.50;94.20;;;;;;5007283;28;20034;-91
2021/01/08 16:35:07;;;;;;;19.45;12.60;;;2.40;94.20;;;;;;5004068;28;20045;-94
2021/01/08 16:37:33;;;;;;;20.17;13.25;;;2.50;94.10;;;;;;5014308;28;20030;-94
2021/01/08 16:39:59;;;;;;;21.10;14.32;;;2.50;94.00;;;;;;5009817;28;20041;-93
2021/01/08 16:42:24;;;;;;;22.70;15.13;;;2.40;94.00;;;;;;5012867;28;20060;-95
2021/01/08 16:44:50;;;;;;;28.10;17.35;;;2.40;94.00;;;;;;5015130;28;20052;-92
2021/01/08 16:47:20;;;;;;;27.40;19.67;;;2.40;93.90;;;;;;5016864;28;20077;-93
2021/01/08 16:49:46;;;;;;;24.50;17.30;;;2.40;93.80;;;;;;5022831;28;20483;-94
2021/01/08 16:52:13;;;;;;;24.02;17.20;;;2.40;93.90;;;;;;5008924;28;20034;-93
2021/01/08 16:54:39;;;;;;;22.05;16.08;;;2.40;93.80;;;;;;5004830;28;20367;-92
2021/01/08 16:57:05;;;;;;;24.13;15.93;;;2.40;93.90;;;;;;5007759;28;20052;-93
2021/01/08 16:59:31;;;;;;;23.92;16.55;;;2.40;93.90;;;;;;5006624;28;20030;-92
2021/01/08 17:01:56;;;;;;;23.17;15.70;;;2.40;93.90;;;;;;5007043;28;20105;-92
2021/01/08 17:04:22;;;;;;;23.35;15.73;;;2.40;94.00;;;;;;5009575;28;20108;-91
2021/01/08 17:06:51;;;;;;;20.20;14.50;;;2.30;94.10;;;;;;5004451;28;20042;-92
2021/01/08 17:09:18;;;;;;;23.23;15.68;;;2.30;94.10;;;;;;5003691;28;20437;-90
2021/01/08 17:11:44;;;;;;;22.95;16.00;;;2.30;94.20;;;;;;5005385;28;20470;-90
2021/01/08 17:14:10;;;;;;;26.17;15.43;;;2.30;94.10;;;;;;5011458;28;20029;-92
2021/01/08 17:16:38;;;;;;;25.17;16.15;;;2.30;94.00;;;;;;5011300;28;20497;-92
2021/01/08 17:19:04;;;;;;;24.83;16.42;;;2.30;93.90;;;;;;5008764;28;20024;-91
2021/01/08 17:21:34;;;;;;;22.27;15.75;;;2.30;93.90;;;;;;5002723;28;20453;-93
2021/01/08 17:24:29;;;;;;;25.88;16.35;;;2.30;93.90;;;;;;5502017;23;20043;-96
2021/01/08 17:26:59;;;;;;;22.15;14.27;;;2.30;94.00;;;;;;5078001;23;20061;-96
2021/01/08 17:29:28;;;;;;;22.67;15.52;;;2.30;94.10;;;;;;5025906;28;20026;-96
2021/01/08 17:31:54;;;;;;;27.77;15.80;;;2.20;94.10;;;;;;5001611;28;20026;-96
2021/01/08 17:34:20;;;;;;;24.50;16.15;;;2.20;94.00;;;;;;5001575;28;20121;-95
2021/01/08 17:36:50;;;;;;;24.30;15.45;;;2.20;94.00;;;;;;5001454;28;20030;-95
2021/01/08 17:39:16;;;;;;;23.38;16.17;;;2.20;94.00;;;;;;5009578;28;20076;-96
2021/01/08 17:41:41;;;;;;;21.90;14.77;;;2.20;93.80;;;;;;4999883;28;20474;-95
2021/01/08 17:44:08;;;;;;;22.27;15.68;;;2.20;93.70;;;;;;5003585;28;20499;-96
2021/01/08 17:46:36;;;;;;;43.40;28.80;;;2.20;93.80;;;;;;4988666;28;20036;-96
2021/01/08 17:49:03;;;;;;;48.75;32.33;;;2.20;94.00;;;;;;5007635;28;20080;-96
2021/01/08 17:51:29;;;;;;;38.72;26.85;;;2.20;93.80;;;;;;5000793;28;20057;-96
2021/01/08 17:53:54;;;;;;;36.28;25.77;;;2.10;93.90;;;;;;4998089;28;20037;-96
2021/01/08 17:56:24;;;;;;;40.70;27.60;;;2.10;93.90;;;;;;4998290;28;20478;-96
2021/01/08 17:58:51;;;;;;;44.83;29.65;;;2.10;93.90;;;;;;5002676;28;20022;-96
2021/01/08 18:01:18;;;;;;;47.50;30.10;;;2.10;94.00;;;;;;5004047;28;20018;-96
2021/01/08 18:03:48;;;;;;;46.63;30.95;;;2.10;94.10;;;;;;4978371;28;20053;-96
2021/01/08 18:06:16;;;;;;;39.50;26.40;;;2.10;94.10;;;;;;5005488;28;20029;-96
2021/01/08 18:08:44;;;;;;;37.97;24.98;;;2.10;94.10;;;;;;5003677;28;20046;-96
2021/01/08 18:11:11;;;;;;;35.85;24.27;;;2.10;94.10;;;;;;4985100;28;20041;-96
2021/01/08 18:13:39;;;;;;;41.50;26.83;;;2.10;94.10;;;;;;4998202;28;20026;-96
2021/01/08 18:16:06;;;;;;;44.22;28.85;;;2.10;94.00;;;;;;4994532;28;20046;-96
2021/01/08 18:18:32;;;;;;;45.13;28.63;;;2.10;93.80;;;;;;4981655;28;20046;-96
2021/01/08 18:20:58;;;;;;;44.30;27.35;;;2.10;93.80;;;;;;5004597;28;20022;-96
2021/01/08 18:23:24;;;;;;;39.90;27.50;;;2.10;93.80;;;;;;5003201;28;20021;-96
2021/01/08 18:25:51;;;;;;;43.55;28.40;;;2.10;93.90;;;;;;4998646;28;20041;-96
2021/01/08 18:28:23;;;;;;;44.60;28.85;;;2.10;93.90;;;;;;5000995;28;20481;-96
2021/01/08 18:30:49;;;;;;;45.30;28.63;;;2.10;93.80;;;;;;4993699;28;20085;-96
2021/01/08 18:33:15;;;;;;;52.00;28.88;;;2.10;93.80;;;;;;5005731;28;20033;-96
2021/01/08 18:35:42;;;;;;;51.80;32.15;;;2.10;93.80;;;;;;5007158;28;20053;-96
2021/01/08 18:38:09;;;;;;;52.78;31.92;;;2.10;93.70;;;;;;5003986;28;20076;-96
2021/01/08 18:40:35;;;;;;;55.25;33.13;;;2.00;93.60;;;;;;5011091;28;20033;-96
2021/01/08 18:43:01;;;;;;;56.30;33.58;;;2.00;93.60;;;;;;5005440;28;20034;-96
2021/01/08 18:45:28;;;;;;;55.13;29.92;;;2.00;93.60;;;;;;5012708;28;20089;-96
2021/01/08 18:47:54;;;;;;;41.83;26.00;;;2.00;93.70;;;;;;5001317;28;20034;-96
2021/01/08 18:50:20;;;;;;;41.13;25.13;;;2.00;93.80;;;;;;5007192;28;20037;-96
2021/01/08 18:52:46;;;;;;;34.20;19.98;;;2.00;93.50;;;;;;5015339;28;20393;-96
2021/01/08 18:55:13;;;;;;;35.30;20.02;;;2.00;93.70;;;;;;5007000;28;20467;-96
2021/01/08 18:57:39;;;;;;;35.83;20.13;;;2.00;93.70;;;;;;5006096;28;20117;-96
2021/01/08 19:00:07;;;;;;;33.30;19.65;;;2.00;93.80;;;;;;5001434;28;20054;-96
2021/01/08 19:02:37;;;;;;;35.47;21.73;;;2.00;93.80;;;;;;5006661;28;20552;-96
